createdAt,value
2022-08-25T00:01:32.482Z,98230.28
2022-08-25T00:04:02.271Z,98221.38
2022-08-25T00:06:31.481Z,98230.59
2022-08-25T00:09:00.079Z,98228.69
2022-08-25T00:11:30.461Z,98230.59
2022-08-25T00:14:06.160Z,98228.94
2022-08-25T00:16:33.810Z,98225.19
2022-08-25T00:19:06.357Z,98234.09
2022-08-25T00:21:34.491Z,98230.03
2022-08-25T00:24:02.930Z,98230.31
2022-08-25T00:26:31.376Z,98227.06
2022-08-25T00:29:02.016Z,98225.72
2022-08-25T00:31:38.223Z,98218.44
2022-08-25T00:34:14.938Z,98220.03
2022-08-25T00:36:42.969Z,98214.66
2022-08-25T00:39:11.229Z,98217.63
2022-08-25T00:41:42.891Z,98216.00
2022-08-25T00:44:13.349Z,98211.13
2022-08-25T00:46:45.421Z,98211.13
2022-08-25T00:49:47.848Z,98207.88
2022-08-25T00:52:25.817Z,98220.59
2022-08-25T00:55:07.780Z,98214.38
2022-08-25T00:57:57.686Z,98212.22
2022-08-25T01:00:38.336Z,98222.72
2022-08-25T01:03:07.120Z,98212.22
2022-08-25T01:05:35.464Z,98207.34
2022-08-25T01:08:06.897Z,98205.75
2022-08-25T01:10:37.416Z,98210.06
2022-08-25T01:13:16.478Z,98205.19
2022-08-25T01:15:49.374Z,98204.09
2022-08-25T01:18:17.001Z,98201.41
2022-08-25T01:20:46.871Z,98202.50
2022-08-25T01:23:14.372Z,98208.44
2022-08-25T01:25:51.721Z,98204.41
2022-08-25T01:28:20.568Z,98205.75
2022-08-25T01:30:49.010Z,98204.38
2022-08-25T01:33:19.546Z,98207.88
2022-08-25T01:35:48.288Z,98215.72
2022-08-25T01:38:16.219Z,98214.66
2022-08-25T01:40:44.079Z,98212.19
2022-08-25T01:43:11.873Z,98210.31
2022-08-25T01:45:41.952Z,98206.19
2022-08-25T01:48:11.109Z,98210.03
2022-08-25T01:50:40.450Z,98208.41
2022-08-25T01:53:27.082Z,98213.81
2022-08-25T01:56:02.679Z,98200.84
2022-08-25T01:58:34.426Z,98203.00
2022-08-25T02:01:05.855Z,98208.97
2022-08-25T02:03:38.359Z,98205.19
2022-08-25T02:06:16.606Z,98203.81
2022-08-25T02:08:44.558Z,98205.66
2022-08-25T02:11:13.964Z,98207.84
2022-08-25T02:13:42.691Z,98210.53
2022-08-25T02:16:15.212Z,98208.09
2022-08-25T02:18:42.837Z,98205.09
2022-08-25T02:21:11.547Z,98200.78
2022-08-25T02:23:39.066Z,98205.91
2022-08-25T02:26:06.578Z,98206.44
2022-08-25T02:28:34.634Z,98209.44
2022-08-25T02:31:02.800Z,98205.13
2022-08-25T02:33:30.430Z,98206.53
2022-08-25T02:36:02.597Z,98203.25
2022-08-25T02:38:30.279Z,98203.50
2022-08-25T02:40:59.967Z,98208.66
2022-08-25T02:43:28.425Z,98200.81
2022-08-25T02:45:56.577Z,98201.13
2022-08-25T02:48:24.619Z,98201.13
2022-08-25T02:50:53.145Z,98190.63
2022-08-25T02:53:21.764Z,98197.63
2022-08-25T02:55:49.364Z,98193.31
2022-08-25T02:58:16.967Z,98194.38
2022-08-25T03:00:46.178Z,98198.16
2022-08-25T03:03:14.467Z,98189.47
2022-08-25T03:05:42.173Z,98197.84
2022-08-25T03:08:12.049Z,98187.59
2022-08-25T03:10:39.719Z,98187.31
2022-08-25T03:13:07.301Z,98183.00
2022-08-25T03:15:37.952Z,98177.06
2022-08-25T03:18:08.619Z,98178.13
2022-08-25T03:20:36.325Z,98177.06
2022-08-25T03:23:05.749Z,98173.81
2022-08-25T03:25:52.315Z,98166.28
2022-08-25T03:28:20.575Z,98177.88
2022-08-25T03:30:56.105Z,98172.72
2022-08-25T03:33:23.898Z,98167.63
2022-08-25T03:35:51.369Z,98173.03
2022-08-25T03:38:18.877Z,98166.56
2022-08-25T03:40:46.389Z,98168.69
2022-08-25T03:43:13.935Z,98166.56
2022-08-25T03:45:43.462Z,98167.63
2022-08-25T03:48:11.125Z,98174.38
2022-08-25T03:50:50.719Z,98169.22
2022-08-25T03:53:20.719Z,98165.44
2022-08-25T03:55:48.303Z,98176.50
2022-08-25T03:58:15.957Z,98171.38
2022-08-25T04:00:43.462Z,98172.44
2022-08-25T04:03:11.406Z,98176.78
2022-08-25T04:05:40.069Z,98173.28
2022-08-25T04:08:08.169Z,98171.41
2022-08-25T04:10:37.169Z,98177.59
2022-08-25T04:13:06.389Z,98170.56
2022-08-25T04:15:34.090Z,98174.59
2022-08-25T04:18:01.723Z,98172.19
2022-08-25T04:20:29.360Z,98168.66
2022-08-25T04:23:00.714Z,98163.31
2022-08-25T04:25:28.335Z,98172.72
2022-08-25T04:27:55.877Z,98172.75
2022-08-25T04:30:23.759Z,98157.91
2022-08-25T04:32:51.629Z,98158.22
2022-08-25T04:35:19.180Z,98150.16
2022-08-25T04:37:48.891Z,98157.16
2022-08-25T04:40:16.607Z,98161.97
2022-08-25T04:42:45.165Z,98160.31
2022-08-25T04:45:15.799Z,98167.25
2022-08-25T04:47:43.245Z,98159.06
2022-08-25T04:50:11.299Z,98155.69
2022-08-25T04:52:38.824Z,98159.38
2022-08-25T04:55:06.675Z,98164.03
2022-08-25T04:57:34.468Z,98157.53
2022-08-25T05:00:02.597Z,98165.13
2022-08-25T05:02:30.028Z,98157.94
2022-08-25T05:04:57.759Z,98162.97
2022-08-25T05:07:25.245Z,98167.22
2022-08-25T05:09:52.718Z,98175.72
2022-08-25T05:12:20.998Z,98166.44
2022-08-25T05:14:48.695Z,98175.69
2022-08-25T05:17:16.197Z,98169.50
2022-08-25T05:19:44.040Z,98165.00
2022-08-25T05:22:11.596Z,98163.50
2022-08-25T05:24:39.139Z,98156.28
2022-08-25T05:27:06.681Z,98167.41
2022-08-25T05:29:35.785Z,98157.56
2022-08-25T05:32:03.885Z,98158.13
2022-08-25T05:34:31.468Z,98167.59
2022-08-25T05:37:00.331Z,98163.13
2022-08-25T05:39:27.919Z,98163.16
2022-08-25T05:41:55.474Z,98165.09
2022-08-25T05:44:22.970Z,98164.22
2022-08-25T05:46:51.455Z,98165.22
2022-08-25T05:49:19.257Z,98160.25
2022-08-25T05:51:46.798Z,98166.31
2022-08-25T05:54:14.359Z,98158.47
2022-08-25T05:56:41.811Z,98159.56
2022-08-25T05:59:09.830Z,98156.63
2022-08-25T06:01:56.020Z,98162.22
2022-08-25T06:04:24.129Z,98158.81
2022-08-25T06:06:54.081Z,98156.19
2022-08-25T06:09:23.239Z,98164.16
2022-08-25T06:11:54.696Z,98160.25
2022-08-25T06:14:24.120Z,98165.63
2022-08-25T06:16:52.490Z,98163.47
2022-08-25T06:19:21.360Z,98166.97
2022-08-25T06:21:49.431Z,98159.94
2022-08-25T06:24:17.259Z,98155.31
2022-08-25T06:26:44.679Z,98161.41
2022-08-25T06:29:14.289Z,98160.09
2022-08-25T06:31:42.959Z,98164.00
2022-08-25T06:34:11.483Z,98153.91
2022-08-25T06:36:39.400Z,98148.16
2022-08-25T06:39:07.376Z,98152.31
2022-08-25T06:41:37.569Z,98152.59
2022-08-25T06:44:06.079Z,98161.44
2022-08-25T06:46:36.319Z,98150.50
2022-08-25T06:49:05.741Z,98147.91
2022-08-25T06:51:36.338Z,98153.41
2022-08-25T06:54:07.018Z,98146.69
2022-08-25T06:56:34.670Z,98142.63
2022-08-25T06:59:06.382Z,98151.47
2022-08-25T07:01:34.826Z,98145.47
2022-08-25T07:04:10.282Z,98147.56
2022-08-25T07:06:40.580Z,98148.72
2022-08-25T07:09:12.666Z,98148.63
2022-08-25T07:11:44.199Z,98147.34
2022-08-25T07:14:14.016Z,98156.03
2022-08-25T07:16:42.462Z,98153.25
2022-08-25T07:19:16.320Z,98150.91
2022-08-25T07:21:47.033Z,98151.88
2022-08-25T07:24:15.329Z,98154.22
2022-08-25T07:26:43.800Z,98155.66
2022-08-25T07:29:18.349Z,98156.75
2022-08-25T07:31:47.669Z,98164.84
2022-08-25T07:34:34.017Z,98163.00
2022-08-25T07:37:05.185Z,98157.13
2022-08-25T07:39:34.199Z,98152.56
2022-08-25T07:42:01.771Z,98159.00
2022-08-25T07:44:29.589Z,98157.69
2022-08-25T07:46:57.564Z,98154.38
2022-08-25T07:49:26.958Z,98152.13
2022-08-25T07:52:06.454Z,98153.91
2022-08-25T07:54:37.884Z,98155.91
2022-08-25T07:57:08.601Z,98152.69
2022-08-25T07:59:42.987Z,98158.72
2022-08-25T08:02:18.141Z,98159.25
2022-08-25T08:04:52.030Z,98160.81
2022-08-25T08:07:22.797Z,98155.66
2022-08-25T08:10:05.251Z,98160.91
2022-08-25T08:12:39.742Z,98166.78
2022-08-25T08:15:10.403Z,98170.78
2022-08-25T08:17:39.826Z,98163.03
2022-08-25T08:20:09.475Z,98163.94
2022-08-25T08:22:39.268Z,98159.06
2022-08-25T08:25:08.638Z,98158.69
2022-08-25T08:27:39.589Z,98160.47
2022-08-25T08:30:07.630Z,98151.25
2022-08-25T08:33:05.871Z,98154.91
2022-08-25T08:35:22.885Z,98155.28
2022-08-25T08:37:52.539Z,98155.28
2022-08-25T08:40:22.420Z,98153.19
2022-08-25T08:43:18.524Z,98152.00
2022-08-25T08:45:53.774Z,98154.22
2022-08-25T08:48:45.424Z,98150.44
2022-08-25T08:51:26.153Z,98150.16
2022-08-25T08:54:06.665Z,98145.81
2022-08-25T08:56:48.388Z,98142.28
2022-08-25T08:59:29.979Z,98145.50
2022-08-25T09:02:02.052Z,98142.72
2022-08-25T09:04:35.358Z,98130.44
2022-08-25T09:07:05.139Z,98129.81
2022-08-25T09:09:36.293Z,98130.00
2022-08-25T09:12:28.619Z,98126.16
2022-08-25T09:15:23.737Z,98121.09
2022-08-25T09:18:21.179Z,98121.25
2022-08-25T09:20:59.764Z,98119.19
2022-08-25T09:23:52.519Z,98117.41
2022-08-25T09:26:20.118Z,98124.78
2022-08-25T09:29:16.395Z,98118.22
2022-08-25T09:31:45.479Z,98112.56
2022-08-25T09:34:19.049Z,98108.03
2022-08-25T09:36:48.825Z,98106.47
2022-08-25T09:39:17.120Z,98105.19
2022-08-25T09:41:51.532Z,98094.75
2022-08-25T09:44:28.131Z,98104.38
2022-08-25T09:47:02.154Z,98093.47
2022-08-25T09:49:42.763Z,98099.25
2022-08-25T09:52:28.409Z,98088.75
2022-08-25T09:54:57.978Z,98084.56
2022-08-25T09:57:52.728Z,98075.47
2022-08-25T10:00:23.614Z,98068.69
2022-08-25T10:03:22.817Z,98084.44
2022-08-25T10:05:56.300Z,98065.41
2022-08-25T10:08:32.448Z,98070.97
2022-08-25T10:11:02.825Z,98067.91
2022-08-25T10:13:46.982Z,98074.66
2022-08-25T10:16:36.299Z,98064.88
2022-08-25T10:19:22.240Z,98053.28
2022-08-25T10:22:32.349Z,98040.63
2022-08-25T10:25:00.587Z,98049.16
2022-08-25T10:27:39.348Z,98042.03
2022-08-25T10:30:24.328Z,98044.03
2022-08-25T10:33:00.890Z,98034.72
2022-08-25T10:35:45.689Z,98034.66
2022-08-25T10:38:35.499Z,98030.34
2022-08-25T10:41:21.529Z,98021.09
2022-08-25T10:44:33.666Z,98028.56
2022-08-25T10:47:34.938Z,98013.50
2022-08-25T10:50:10.714Z,98005.09
2022-08-25T10:53:06.556Z,98007.81
2022-08-25T10:55:48.997Z,98012.63
2022-08-25T10:58:47.345Z,98015.09
2022-08-25T11:01:28.827Z,98009.94
2022-08-25T11:04:07.634Z,98000.31
2022-08-25T11:06:42.519Z,97988.09
2022-08-25T11:09:16.183Z,98000.53
2022-08-25T11:11:49.517Z,97993.88
2022-08-25T11:14:35.189Z,97992.28
2022-08-25T11:17:20.369Z,97997.50
2022-08-25T11:19:51.509Z,97997.22
2022-08-25T11:22:27.710Z,97987.88
2022-08-25T11:25:18.634Z,97992.34
2022-08-25T11:28:23.356Z,97991.09
2022-08-25T11:30:53.355Z,97992.28
2022-08-25T11:33:25.399Z,97983.09
2022-08-25T11:35:59.317Z,97972.50
2022-08-25T11:38:56.762Z,97974.44
2022-08-25T11:41:57.072Z,97972.78
2022-08-25T11:45:02.772Z,97973.00
2022-08-25T11:47:31.599Z,97986.50
2022-08-25T11:50:31.807Z,97985.03
2022-08-25T11:53:11.607Z,97989.38
2022-08-25T11:55:52.400Z,97982.50
2022-08-25T11:58:31.896Z,97973.19
2022-08-25T12:01:02.217Z,97972.09
2022-08-25T12:03:32.492Z,97952.97
2022-08-25T12:06:25.159Z,97952.41
2022-08-25T12:09:01.465Z,97958.38
2022-08-25T12:11:38.119Z,97952.25
2022-08-25T12:14:16.404Z,97953.88
2022-08-25T12:17:05.513Z,97946.00
2022-08-25T12:19:36.347Z,97942.63
2022-08-25T12:22:04.161Z,97937.38
2022-08-25T12:24:48.186Z,97943.38
2022-08-25T12:27:19.572Z,97944.38
2022-08-25T12:29:58.978Z,97936.03
2022-08-25T12:32:38.587Z,97936.44
2022-08-25T12:35:24.229Z,97929.88
2022-08-25T12:37:59.099Z,97935.75
2022-08-25T12:40:35.402Z,97927.94
2022-08-25T12:43:37.625Z,97918.94
2022-08-25T12:46:25.889Z,97928.72
2022-08-25T12:49:12.039Z,97920.88
2022-08-25T12:52:20.559Z,97926.47
2022-08-25T12:54:54.728Z,97914.13
2022-08-25T12:57:24.980Z,97914.16
2022-08-25T12:59:59.869Z,97913.09
2022-08-25T13:02:53.530Z,97912.84
2022-08-25T13:05:42.009Z,97910.72
2022-08-25T13:08:33.683Z,97910.47
2022-08-25T13:11:49.175Z,97906.19
2022-08-25T13:14:26.990Z,97903.84
2022-08-25T13:16:58.303Z,97902.59
2022-08-25T13:19:28.095Z,97895.72
2022-08-25T13:22:16.399Z,97893.78
2022-08-25T13:24:47.532Z,97884.00
2022-08-25T13:27:28.244Z,97887.00
2022-08-25T13:29:59.158Z,97882.19
2022-08-25T13:32:32.557Z,97875.13
2022-08-25T13:35:21.439Z,97869.59
2022-08-25T13:37:50.876Z,97869.19
2022-08-25T13:40:28.035Z,97869.91
2022-08-25T13:43:01.254Z,97875.00
2022-08-25T13:45:41.317Z,97869.66
2022-08-25T13:48:22.754Z,97875.00
2022-08-25T13:50:54.510Z,97874.63
2022-08-25T13:53:26.000Z,97864.38
2022-08-25T13:55:58.391Z,97857.94
2022-08-25T13:58:38.754Z,97860.78
2022-08-25T14:01:22.903Z,97873.09
2022-08-25T14:04:50.853Z,97868.25
2022-08-25T14:07:26.255Z,97858.94
2022-08-25T14:10:08.839Z,97864.97
2022-08-25T14:12:47.937Z,97863.16
2022-08-25T14:15:17.252Z,97853.81
2022-08-25T14:17:49.197Z,97860.00
2022-08-25T14:20:25.777Z,97853.94
2022-08-25T14:22:58.257Z,97857.19
2022-08-25T14:25:28.359Z,97856.63
2022-08-25T14:28:08.084Z,97855.78
2022-08-25T14:30:39.991Z,97857.69
2022-08-25T14:33:12.451Z,97849.41
2022-08-25T14:35:42.131Z,97844.59
2022-08-25T14:38:11.601Z,97836.31
2022-08-25T14:40:39.962Z,97843.25
2022-08-25T14:43:09.654Z,97840.47
2022-08-25T14:45:41.173Z,97833.66
2022-08-25T14:48:14.441Z,97828.31
2022-08-25T14:50:42.336Z,97826.19
2022-08-25T14:53:12.025Z,97823.41
2022-08-25T14:55:39.940Z,97830.34
2022-08-25T14:58:08.227Z,97828.66
2022-08-25T15:00:44.645Z,97830.53
2022-08-25T15:03:15.419Z,97830.44
2022-08-25T15:05:43.020Z,97828.41
2022-08-25T15:08:33.105Z,97825.22
2022-08-25T15:11:00.998Z,97818.78
2022-08-25T15:13:28.571Z,97824.84
2022-08-25T15:15:58.047Z,97822.38
2022-08-25T15:18:26.077Z,97816.97
2022-08-25T15:20:53.555Z,97822.88
2022-08-25T15:23:21.139Z,97822.06
2022-08-25T15:25:52.661Z,97812.94
2022-08-25T15:28:22.199Z,97811.72
2022-08-25T15:30:51.030Z,97809.03
2022-08-25T15:33:18.876Z,97814.09
2022-08-25T15:35:46.562Z,97805.44
2022-08-25T15:38:17.549Z,97820.03
2022-08-25T15:40:44.999Z,97805.22
2022-08-25T15:43:14.250Z,97813.91
2022-08-25T15:45:41.759Z,97802.97
2022-08-25T15:48:09.835Z,97805.66
2022-08-25T15:50:38.571Z,97804.19
2022-08-25T15:53:10.382Z,97803.72
2022-08-25T15:55:40.509Z,97807.47
2022-08-25T15:58:08.813Z,97801.16
2022-08-25T16:00:37.826Z,97807.09
2022-08-25T16:03:07.914Z,97804.16
2022-08-25T16:05:37.388Z,97808.22
2022-08-25T16:08:05.767Z,97785.22
2022-08-25T16:10:39.307Z,97792.19
2022-08-25T16:13:09.791Z,97793.63
2022-08-25T16:15:39.077Z,97791.75
2022-08-25T16:18:07.978Z,97802.06
2022-08-25T16:20:36.346Z,97783.44
2022-08-25T16:23:04.599Z,97806.94
2022-08-25T16:25:32.767Z,97790.88
2022-08-25T16:28:04.162Z,97791.81
2022-08-25T16:30:31.648Z,97778.19
2022-08-25T16:32:59.238Z,97795.88
2022-08-25T16:35:28.618Z,97787.09
2022-08-25T16:37:57.107Z,97790.63
2022-08-25T16:40:26.595Z,97786.78
2022-08-25T16:42:55.125Z,97784.28
2022-08-25T16:45:22.879Z,97781.41
2022-08-25T16:47:50.716Z,97785.44
2022-08-25T16:50:18.221Z,97781.44
2022-08-25T16:53:04.217Z,97786.88
2022-08-25T16:55:39.442Z,97778.41
2022-08-25T16:58:08.116Z,97787.22
2022-08-25T17:00:37.890Z,97777.75
2022-08-25T17:03:06.609Z,97790.91
2022-08-25T17:05:41.639Z,97791.25
2022-08-25T17:08:27.928Z,97789.44
2022-08-25T17:11:17.738Z,97788.63
2022-08-25T17:13:49.702Z,97796.16
2022-08-25T17:16:21.402Z,97791.84
2022-08-25T17:18:49.409Z,97793.44
2022-08-25T17:21:24.357Z,97789.97
2022-08-25T17:23:54.539Z,97795.06
2022-08-25T17:26:27.709Z,97796.81
2022-08-25T17:29:01.070Z,97799.22
2022-08-25T17:31:29.985Z,97807.88
2022-08-25T17:33:59.008Z,97812.97
2022-08-25T17:36:27.526Z,97814.59
2022-08-25T17:38:57.052Z,97805.28
2022-08-25T17:41:25.142Z,97809.25
2022-08-25T17:43:52.665Z,97811.13
2022-08-25T17:46:21.776Z,97808.88
2022-08-25T17:48:49.448Z,97814.25
2022-08-25T17:51:17.182Z,97808.78
2022-08-25T17:53:44.941Z,97818.34
2022-08-25T17:56:18.660Z,97819.25
2022-08-25T17:58:47.517Z,97820.72
2022-08-25T18:01:18.454Z,97809.50
2022-08-25T18:03:46.806Z,97815.34
2022-08-25T18:06:16.050Z,97830.72
2022-08-25T18:08:44.924Z,97819.97
2022-08-25T18:11:20.446Z,97822.84
2022-08-25T18:13:48.066Z,97822.22
2022-08-25T18:16:18.741Z,97819.66
2022-08-25T18:18:46.258Z,97821.44
2022-08-25T18:21:16.847Z,97829.50
2022-08-25T18:23:44.605Z,97832.75
2022-08-25T18:26:13.989Z,97837.09
2022-08-25T18:28:43.887Z,97839.75
2022-08-25T18:31:13.219Z,97840.69
2022-08-25T18:33:44.591Z,97837.34
2022-08-25T18:36:13.660Z,97837.69
2022-08-25T18:39:00.877Z,97840.72
2022-08-25T18:41:35.189Z,97834.25
2022-08-25T18:44:03.519Z,97835.50
2022-08-25T18:46:31.159Z,97832.38
2022-08-25T18:49:00.509Z,97836.25
2022-08-25T18:51:27.958Z,97841.56
2022-08-25T18:54:01.432Z,97848.41
2022-08-25T18:56:29.910Z,97846.91
2022-08-25T18:58:57.824Z,97841.56
2022-08-25T19:01:25.485Z,97835.63
2022-08-25T19:03:53.413Z,97841.88
2022-08-25T19:06:21.004Z,97837.94
2022-08-25T19:08:48.868Z,97841.53
2022-08-25T19:11:17.513Z,97844.47
2022-08-25T19:13:51.427Z,97844.38
2022-08-25T19:16:35.640Z,97839.25
2022-08-25T19:19:06.449Z,97837.31
2022-08-25T19:21:35.062Z,97838.44
2022-08-25T19:24:03.059Z,97839.66
2022-08-25T19:26:31.806Z,97835.16
2022-08-25T19:28:59.332Z,97833.25
2022-08-25T19:31:27.872Z,97836.06
2022-08-25T19:34:02.087Z,97832.63
2022-08-25T19:36:30.747Z,97841.38
2022-08-25T19:39:01.384Z,97837.78
2022-08-25T19:41:31.467Z,97834.13
2022-08-25T19:44:00.027Z,97833.34
2022-08-25T19:46:32.344Z,97835.34
2022-08-25T19:49:08.933Z,97838.38
2022-08-25T19:51:44.163Z,97838.47
2022-08-25T19:54:16.288Z,97844.19
2022-08-25T19:56:54.406Z,97843.25
2022-08-25T19:59:34.251Z,97853.84
2022-08-25T20:02:11.141Z,97842.28
2022-08-25T20:04:38.737Z,97839.28
2022-08-25T20:07:07.797Z,97844.72
2022-08-25T20:09:41.146Z,97838.25
2022-08-25T20:12:10.661Z,97834.53
2022-08-25T20:14:38.767Z,97837.59
2022-08-25T20:17:23.311Z,97836.88
2022-08-25T20:19:54.473Z,97832.34
2022-08-25T20:22:26.177Z,97836.25
2022-08-25T20:25:00.302Z,97833.34
2022-08-25T20:27:33.868Z,97830.44
2022-08-25T20:30:02.691Z,97826.69
2022-08-25T20:32:33.142Z,97833.56
2022-08-25T20:35:02.279Z,97840.59
2022-08-25T20:37:30.997Z,97834.84
2022-08-25T20:39:58.877Z,97837.88
2022-08-25T20:42:26.466Z,97832.44
2022-08-25T20:44:54.734Z,97829.53
2022-08-25T20:47:22.828Z,97828.22
2022-08-25T20:49:50.593Z,97822.59
2022-08-25T20:52:19.686Z,97828.31
2022-08-25T20:54:50.326Z,97830.50
2022-08-25T20:57:25.485Z,97829.19
2022-08-25T20:59:54.916Z,97830.78
2022-08-25T21:02:24.063Z,97830.28
2022-08-25T21:04:53.356Z,97818.13
2022-08-25T21:07:23.906Z,97828.47
2022-08-25T21:09:51.847Z,97827.16
2022-08-25T21:12:19.967Z,97824.97
2022-08-25T21:14:48.393Z,97826.66
2022-08-25T21:17:19.138Z,97823.44
2022-08-25T21:22:16.527Z,97819.72
2022-08-25T21:24:45.033Z,97824.44
2022-08-25T21:27:12.628Z,97821.72
2022-08-25T21:29:44.741Z,97819.81
2022-08-25T21:32:22.687Z,97813.38
2022-08-25T21:34:54.354Z,97813.97
2022-08-25T21:37:22.034Z,97821.28
2022-08-25T21:39:49.807Z,97817.50
2022-08-25T21:42:17.493Z,97819.50
2022-08-25T21:44:45.235Z,97823.09
2022-08-25T21:47:12.835Z,97814.44
2022-08-25T21:49:40.401Z,97813.16
2022-08-25T21:52:08.173Z,97808.81
2022-08-25T21:54:35.722Z,97810.19
2022-08-25T21:57:06.026Z,97808.09
2022-08-25T21:59:36.896Z,97805.28
2022-08-25T22:02:08.871Z,97805.59
2022-08-25T22:04:38.923Z,97805.00
2022-08-25T22:07:09.095Z,97809.59
2022-08-25T22:09:37.144Z,97805.00
2022-08-25T22:12:06.115Z,97803.69
2022-08-25T22:14:34.323Z,97803.78
2022-08-25T22:17:02.374Z,97809.78
2022-08-25T22:19:30.004Z,97803.38
2022-08-25T22:22:01.723Z,97800.94
2022-08-25T22:24:29.254Z,97792.22
2022-08-25T22:26:57.130Z,97795.31
2022-08-25T22:29:26.192Z,97793.19
2022-08-25T22:32:00.699Z,97792.66
2022-08-25T22:34:34.701Z,97787.84
2022-08-25T22:37:07.690Z,97781.94
2022-08-25T22:39:36.173Z,97780.31
2022-08-25T22:42:06.273Z,97778.72
2022-08-25T22:44:33.673Z,97779.50
2022-08-25T22:47:01.253Z,97776.00
2022-08-25T22:49:29.534Z,97770.59
2022-08-25T22:51:57.773Z,97775.47
2022-08-25T22:54:25.669Z,97769.78
2022-08-25T22:56:53.903Z,97766.56
2022-08-25T22:59:22.199Z,97764.16
2022-08-25T23:01:52.676Z,97759.78
2022-08-25T23:04:22.916Z,97757.06
2022-08-25T23:06:52.743Z,97753.31
2022-08-25T23:09:21.012Z,97764.16
2022-08-25T23:12:20.906Z,97757.06
2022-08-25T23:14:50.369Z,97754.84
2022-08-25T23:17:17.976Z,97758.63
2022-08-25T23:19:46.688Z,97760.84
2022-08-25T23:22:16.265Z,97754.84
2022-08-25T23:24:47.445Z,97749.69
2022-08-25T23:27:19.923Z,97740.25
2022-08-25T23:29:49.397Z,97749.50
2022-08-25T23:32:18.326Z,97744.38
2022-08-25T23:34:46.999Z,97740.13
2022-08-25T23:37:16.079Z,97741.31
2022-08-25T23:39:47.495Z,97738.38
2022-08-25T23:42:19.440Z,97739.47
2022-08-25T23:44:48.189Z,97735.75
2022-08-25T23:47:16.809Z,97736.63
2022-08-25T23:49:44.539Z,97731.81
2022-08-25T23:52:12.270Z,97736.22
2022-08-25T23:54:39.811Z,97735.69
2022-08-25T23:57:07.300Z,97739.38
2022-08-25T23:59:38.262Z,97735.56
